Time;durP1;ratioP1;P1;durP2;ratioP2;P2;SDS_P1;SDS_P2;PMS_P1;PMS_P2;Temp;Humidity;BMP_temperature;BMP_pressure;BME280_temperature;BME280_humidity;BME280_pressure;Samples;Min_cycle;Max_cycle;Signal;HPM_P1;HPM_P2
2021/06/26 04:31:57;;;;;;;14.97;6.30;;;;;;;;;;4951912;29;20877;-96
2021/06/26 04:37:23;;;;;;;;;;;;;;;;;;;;;
2021/06/26 04:47:35;;;;;;;21.10;6.77;;;;;;;;;;4965379;28;20496;-96
2021/06/26 04:53:04;;;;;;;14.43;5.47;;;;;;;;;;4931230;29;20848;-96
2021/06/26 07:26:12;;;;;;;19.30;7.30;;;;;;;;;;5021785;23;20533;-96
2021/06/26 07:31:30;;;;;;;16.20;6.43;;;;;;;;;;5610870;23;20481;31
2021/06/26 07:48:20;;;;;;;24.40;7.30;;;;;;;;;;5462556;23;20480;-96
2021/06/26 07:50:50;;;;;;;17.80;5.83;;;;;;;;;;5498906;23;20553;-96
2021/06/26 07:56:04;;;;;;;13.47;5.77;;;;;;;;;;4966861;28;20482;-95
2021/06/26 08:01:33;;;;;;;12.57;5.30;;;;;;;;;;5098102;23;20499;-96
2021/06/26 08:04:00;;;;;;;19.17;7.10;;;;;;;;;;4953828;29;20450;-94
2021/06/26 08:06:28;;;;;;;17.63;5.97;;;;;;;;;;4955420;29;20488;-96
2021/06/26 08:09:23;;;;;;;15.43;5.17;;;;;;;;;;4957717;29;20583;-96
2021/06/26 08:11:50;;;;;;;18.87;6.17;;;;;;;;;;4951200;29;20455;-96
2021/06/26 08:14:17;;;;;;;15.43;5.67;;;;;;;;;;4941592;29;20461;-95
2021/06/26 08:17:01;;;;;;;18.47;5.60;;;;;;;;;;4955278;29;20470;-96
2021/06/26 08:21:59;;;;;;;21.20;6.73;;;;;;;;;;4979152;28;20528;-96
2021/06/26 08:24:26;;;;;;;16.63;6.40;;;;;;;;;;5196639;23;20490;-96
2021/06/26 08:27:17;;;;;;;13.77;5.67;;;;;;;;;;4993809;23;20556;-96
2021/06/26 08:29:44;;;;;;;17.70;5.80;;;;;;;;;;4962018;29;20490;-96
2021/06/26 08:35:19;;;;;;;18.50;6.93;;;;;;;;;;4980474;23;20556;-96
2021/06/26 08:37:48;;;;;;;12.17;5.90;;;;;;;;;;4966157;28;20454;-94
2021/06/26 08:40:40;;;;;;;11.10;5.07;;;;;;;;;;4968202;28;20460;-96
2021/06/26 09:11:18;;;;;;;16.80;5.80;;;;;;;;;;1860669;23;20708;-96
2021/06/26 09:18:56;;;;;;;14.00;4.90;;;;;;;;;;4995710;23;20473;-94
2021/06/26 09:21:28;;;;;;;17.50;5.53;;;;;;;;;;4967266;29;20517;-96
2021/06/26 09:29:46;;;;;;;16.10;5.40;;;;;;;;;;5345814;23;20518;-96
2021/06/26 09:32:19;;;;;;;11.13;4.87;;;;;;;;;;4950114;29;20435;-94
2021/06/26 09:35:02;;;;;;;11.70;4.87;;;;;;;;;;4958159;29;20439;-96
2021/06/26 09:37:31;;;;;;;14.00;5.03;;;;;;;;;;4995721;23;20575;-96
2021/06/26 09:45:10;;;;;;;13.43;4.50;;;;;;;;;;4843468;23;20494;-96
2021/06/26 09:47:40;;;;;;;13.33;4.47;;;;;;;;;;4968520;28;20458;-96
2021/06/26 09:50:11;;;;;;;19.77;5.03;;;;;;;;;;4949362;29;20482;-95
2021/06/26 09:52:47;;;;;;;13.57;4.10;;;;;;;;;;4977367;23;20541;-94
2021/06/26 09:55:17;;;;;;;20.93;4.30;;;;;;;;;;4963925;29;20494;-95
2021/06/26 09:57:44;;;;;;;18.77;4.60;;;;;;;;;;5054123;23;20504;-96
2021/06/26 10:00:19;;;;;;;16.17;5.03;;;;;;;;;;4988966;28;20804;-96
2021/06/26 10:05:17;;;;;;;16.33;4.50;;;;;;;;;;4988917;23;20498;-96
2021/06/26 10:10:22;;;;;;;14.20;4.00;;;;;;;;;;5073707;23;20851;-96
2021/06/26 10:12:50;;;;;;;19.07;4.67;;;;;;;;;;4955155;28;20462;-96
2021/06/26 10:15:18;;;;;;;15.70;4.20;;;;;;;;;;4942644;29;20472;-96
2021/06/26 10:17:54;;;;;;;16.63;4.30;;;;;;;;;;4953189;29;20473;-96
2021/06/26 10:20:22;;;;;;;12.10;4.47;;;;;;;;;;4958790;29;20447;-96
2021/06/26 10:23:04;;;;;;;14.97;4.90;;;;;;;;;;4959537;28;20447;-96
2021/06/26 10:25:34;;;;;;;13.93;4.33;;;;;;;;;;4955124;29;20872;-96
2021/06/26 10:28:02;;;;;;;16.07;4.33;;;;;;;;;;4959219;29;20466;-96
2021/06/26 10:33:13;;;;;;;14.87;4.20;;;;;;;;;;5018855;23;20504;-95
2021/06/26 10:35:40;;;;;;;16.17;5.27;;;;;;;;;;4992255;28;20453;-94
2021/06/26 10:38:08;;;;;;;13.40;4.63;;;;;;;;;;5061482;23;20498;-96
2021/06/26 10:40:40;;;;;;;15.60;4.73;;;;;;;;;;4969292;29;20463;-96
2021/06/26 10:43:20;;;;;;;19.40;4.83;;;;;;;;;;4961824;29;20458;-95
2021/06/26 10:45:47;;;;;;;18.00;3.60;;;;;;;;;;4966433;29;20514;-96
2021/06/26 10:48:24;;;;;;;17.93;4.33;;;;;;;;;;4972308;29;20462;-96
2021/06/26 10:50:53;;;;;;;10.07;3.97;;;;;;;;;;4968044;29;21051;-96
2021/06/26 10:53:27;;;;;;;13.20;4.17;;;;;;;;;;4960114;29;20474;-96
2021/06/26 10:56:03;;;;;;;11.90;4.10;;;;;;;;;;4967002;28;20458;-96
2021/06/26 10:58:30;;;;;;;10.50;4.80;;;;;;;;;;4965832;29;20517;-93
2021/06/26 11:01:01;;;;;;;16.87;4.40;;;;;;;;;;4970650;28;20466;-95
2021/06/26 11:03:35;;;;;;;13.80;3.43;;;;;;;;;;4969896;29;20457;-96
2021/06/26 11:08:56;;;;;;;24.07;6.50;;;;;;;;;;4964994;29;20485;-94
2021/06/26 11:11:27;;;;;;;20.20;5.13;;;;;;;;;;4965982;28;20458;-96
2021/06/26 11:14:03;;;;;;;17.10;5.40;;;;;;;;;;4962786;29;20455;-94
2021/06/26 11:16:30;;;;;;;16.50;4.53;;;;;;;;;;4963681;29;20495;-94
2021/06/26 11:21:43;;;;;;;15.53;3.80;;;;;;;;;;4949340;28;20490;-96
2021/06/26 11:24:10;;;;;;;18.73;4.17;;;;;;;;;;4945480;29;21350;-96
2021/06/26 11:26:50;;;;;;;16.70;4.73;;;;;;;;;;4992201;23;20497;-94
2021/06/26 11:29:27;;;;;;;16.10;4.50;;;;;;;;;;4961070;29;20489;-95
2021/06/26 11:31:54;;;;;;;13.10;3.87;;;;;;;;;;4960825;29;20884;-96
2021/06/26 11:34:20;;;;;;;18.20;4.20;;;;;;;;;;4959694;29;20450;-96
2021/06/26 11:37:09;;;;;;;16.27;4.67;;;;;;;;;;4962397;28;20482;-96
2021/06/26 11:39:39;;;;;;;16.43;4.60;;;;;;;;;;4962703;29;20455;-96
2021/06/26 11:42:16;;;;;;;19.20;4.27;;;;;;;;;;4962551;28;20497;-96
2021/06/26 11:44:43;;;;;;;16.13;4.53;;;;;;;;;;5026351;23;20486;-96
2021/06/26 11:47:12;;;;;;;15.77;5.07;;;;;;;;;;4980972;28;20510;-95
2021/06/26 11:49:40;;;;;;;15.63;4.40;;;;;;;;;;4977644;28;20482;-94
2021/06/26 11:52:09;;;;;;;14.23;4.70;;;;;;;;;;4981445;28;20776;-94
2021/06/26 11:54:37;;;;;;;16.30;4.90;;;;;;;;;;5184462;23;20461;-96
2021/06/26 11:57:05;;;;;;;18.10;5.17;;;;;;;;;;5014560;23;20497;-95
2021/06/26 11:59:39;;;;;;;13.50;4.83;;;;;;;;;;4986229;28;20525;-95
2021/06/26 12:02:05;;;;;;;15.53;4.90;;;;;;;;;;5026118;23;20510;-96
2021/06/26 12:04:43;;;;;;;13.33;4.90;;;;;;;;;;4965169;29;20470;-96
2021/06/26 12:07:10;;;;;;;20.30;4.87;;;;;;;;;;4965942;29;20463;-96
2021/06/26 12:12:21;;;;;;;15.27;4.70;;;;;;;;;;5273393;23;20514;-96
2021/06/26 12:17:43;;;;;;;16.07;5.00;;;;;;;;;;5224207;23;20563;-94
2021/06/26 12:25:46;;;;;;;19.90;4.90;;;;;;;;;;5115235;23;20520;-96
2021/06/26 12:28:17;;;;;;;18.83;4.77;;;;;;;;;;4989251;28;20466;-96
2021/06/26 12:30:44;;;;;;;14.43;4.53;;;;;;;;;;4980425;28;20585;-94
2021/06/26 12:33:11;;;;;;;20.03;5.50;;;;;;;;;;5044726;23;20525;-96
2021/06/26 12:35:38;;;;;;;25.07;5.40;;;;;;;;;;5030729;23;20497;-96
2021/06/26 12:38:05;;;;;;;14.90;4.07;;;;;;;;;;4954467;29;20454;-95
2021/06/26 12:40:35;;;;;;;16.00;4.50;;;;;;;;;;4961927;29;20459;-95
2021/06/26 12:43:10;;;;;;;20.83;4.77;;;;;;;;;;4968376;29;20455;-96
2021/06/26 12:45:44;;;;;;;16.43;5.07;;;;;;;;;;4967042;29;20446;-95
2021/06/26 12:48:12;;;;;;;16.60;4.20;;;;;;;;;;4967294;29;20529;-95
2021/06/26 12:50:46;;;;;;;18.37;5.07;;;;;;;;;;4963329;29;20518;-95
2021/06/26 12:53:18;;;;;;;17.77;4.63;;;;;;;;;;5008321;23;20452;-96
2021/06/26 12:55:51;;;;;;;12.90;4.47;;;;;;;;;;4973887;28;20435;-93
2021/06/26 12:58:29;;;;;;;13.63;5.10;;;;;;;;;;4959533;29;20481;-94
2021/06/26 13:01:03;;;;;;;11.37;4.33;;;;;;;;;;4964908;29;20490;-96
2021/06/26 13:03:38;;;;;;;20.27;4.77;;;;;;;;;;4960151;29;20437;-96
2021/06/26 13:06:05;;;;;;;17.47;4.60;;;;;;;;;;4962583;29;20462;-95
2021/06/26 13:08:54;;;;;;;14.70;4.70;;;;;;;;;;4966574;29;20470;-96
2021/06/26 13:14:14;;;;;;;14.57;4.80;;;;;;;;;;3794935;23;20466;-96
2021/06/26 13:19:09;;;;;;;14.90;4.57;;;;;;;;;;5017268;23;20550;-92
2021/06/26 13:21:38;;;;;;;15.47;5.33;;;;;;;;;;4962124;29;20490;-94
2021/06/26 13:24:07;;;;;;;15.67;4.50;;;;;;;;;;4976293;23;20515;-95
2021/06/26 13:26:42;;;;;;;17.87;4.17;;;;;;;;;;4967879;29;20462;-96
2021/06/26 13:29:10;;;;;;;22.50;4.90;;;;;;;;;;4964828;29;20462;-96
2021/06/26 13:31:37;;;;;;;12.60;4.20;;;;;;;;;;4961342;29;20451;-94
2021/06/26 13:34:04;;;;;;;14.77;4.70;;;;;;;;;;4964517;29;20484;-95
2021/06/26 13:36:43;;;;;;;16.27;5.03;;;;;;;;;;4980076;23;21055;-96
2021/06/26 13:39:12;;;;;;;19.77;4.83;;;;;;;;;;4937702;29;20455;-95
2021/06/26 13:41:39;;;;;;;15.60;5.37;;;;;;;;;;4929892;29;20456;-96
2021/06/26 13:44:06;;;;;;;13.70;5.17;;;;;;;;;;4925053;29;20451;-94
2021/06/26 13:46:34;;;;;;;17.10;4.37;;;;;;;;;;4929759;29;20464;-94
2021/06/26 13:49:04;;;;;;;20.33;4.50;;;;;;;;;;5036109;23;20511;-96
2021/06/26 13:51:30;;;;;;;12.70;4.70;;;;;;;;;;5001590;23;20508;-94
2021/06/26 13:53:57;;;;;;;15.63;4.90;;;;;;;;;;4923968;29;20566;-94
2021/06/26 13:56:24;;;;;;;17.33;4.80;;;;;;;;;;4932198;29;20452;-95
2021/06/26 13:59:09;;;;;;;19.90;5.10;;;;;;;;;;4937254;29;20443;-96
2021/06/26 14:01:45;;;;;;;13.53;3.87;;;;;;;;;;4932217;29;20474;-96
2021/06/26 14:07:23;;;;;;;;;;;;;;;;;;;;;
2021/06/26 14:09:55;;;;;;;21.73;5.87;;;;;;;;;;4962485;28;20492;-93
2021/06/26 14:12:22;;;;;;;14.73;5.50;;;;;;;;;;4980445;28;20515;-96
2021/06/26 14:14:48;;;;;;;15.83;4.50;;;;;;;;;;4982881;28;20534;-95
2021/06/26 14:17:23;;;;;;;20.27;4.40;;;;;;;;;;4977197;28;20452;-96
2021/06/26 14:19:49;;;;;;;14.13;4.33;;;;;;;;;;4975327;28;20467;-96
2021/06/26 14:25:01;;;;;;;15.23;4.43;;;;;;;;;;4968545;28;20465;-95
2021/06/26 14:27:36;;;;;;;17.80;4.70;;;;;;;;;;5023561;23;20505;-94
2021/06/26 14:30:08;;;;;;;13.53;4.10;;;;;;;;;;4988752;28;20545;-96
2021/06/26 14:32:38;;;;;;;16.23;4.90;;;;;;;;;;4992874;28;20445;-95
2021/06/26 14:35:05;;;;;;;22.97;5.60;;;;;;;;;;4981338;28;20465;-92
2021/06/26 14:37:46;;;;;;;10.13;3.83;;;;;;;;;;4983761;28;20458;-96
2021/06/26 14:40:21;;;;;;;16.97;4.23;;;;;;;;;;4972466;28;20465;-95
2021/06/26 14:42:47;;;;;;;17.40;4.57;;;;;;;;;;4982764;28;20544;-96
2021/06/26 14:45:17;;;;;;;20.80;5.90;;;;;;;;;;4982589;28;20465;-96
2021/06/26 14:47:45;;;;;;;16.30;5.43;;;;;;;;;;4985677;28;20934;-94
2021/06/26 14:50:12;;;;;;;10.23;4.43;;;;;;;;;;4979362;28;20507;-91
2021/06/26 14:52:39;;;;;;;19.40;4.77;;;;;;;;;;4980241;28;20441;-93
2021/06/26 14:55:20;;;;;;;17.83;5.60;;;;;;;;;;4982126;28;20454;-96
2021/06/26 14:57:49;;;;;;;14.33;5.03;;;;;;;;;;4995613;23;20544;-96
2021/06/26 15:03:00;;;;;;;21.63;4.83;;;;;;;;;;4282506;23;20490;-95
2021/06/26 15:05:36;;;;;;;17.30;5.70;;;;;;;;;;5006585;23;20506;-96
2021/06/26 15:08:15;;;;;;;17.13;5.50;;;;;;;;;;4973172;29;20438;-96
2021/06/26 15:10:41;;;;;;;21.97;5.27;;;;;;;;;;4966266;29;20558;-96
2021/06/26 15:13:08;;;;;;;13.77;5.07;;;;;;;;;;4969511;29;20450;-96
2021/06/26 15:15:35;;;;;;;14.80;4.60;;;;;;;;;;4966731;29;20450;-92
2021/06/26 15:18:03;;;;;;;16.80;4.73;;;;;;;;;;4964233;29;20466;-93
2021/06/26 15:20:30;;;;;;;20.97;5.50;;;;;;;;;;4968202;29;20501;-95
2021/06/26 15:22:56;;;;;;;15.40;4.27;;;;;;;;;;4966125;29;20521;-94
2021/06/26 15:25:23;;;;;;;21.27;6.30;;;;;;;;;;4964509;29;20459;-95
2021/06/26 15:27:49;;;;;;;12.20;4.53;;;;;;;;;;4959404;29;21117;-95
2021/06/26 15:30:20;;;;;;;17.60;4.50;;;;;;;;;;4969744;28;20482;-95
2021/06/26 15:32:47;;;;;;;17.50;5.10;;;;;;;;;;4964515;29;20458;-95
2021/06/26 15:35:15;;;;;;;18.63;4.83;;;;;;;;;;4967385;29;20846;-95
2021/06/26 15:37:41;;;;;;;18.57;4.40;;;;;;;;;;4964151;29;20490;-91
2021/06/26 15:40:08;;;;;;;16.10;4.50;;;;;;;;;;4967112;28;20450;-94
2021/06/26 15:42:35;;;;;;;14.60;5.80;;;;;;;;;;4971807;28;21367;-92
2021/06/26 15:45:02;;;;;;;15.53;4.67;;;;;;;;;;4966658;28;20454;-92
2021/06/26 15:47:28;;;;;;;13.17;4.50;;;;;;;;;;4965408;29;20451;-93
2021/06/26 15:49:55;;;;;;;16.00;4.27;;;;;;;;;;4965482;29;20454;-94
2021/06/26 15:52:23;;;;;;;17.10;4.17;;;;;;;;;;4966506;29;20454;-93
2021/06/26 15:54:49;;;;;;;26.93;5.50;;;;;;;;;;4964726;29;20451;-93
2021/06/26 15:57:22;;;;;;;21.30;5.10;;;;;;;;;;4967827;29;20458;-96
2021/06/26 16:00:19;;;;;;;19.37;4.67;;;;;;;;;;4976508;23;20553;-96
2021/06/26 16:09:14;;;;;;;17.20;4.93;;;;;;;;;;5115047;23;20561;-96
2021/06/26 16:17:29;;;;;;;17.43;4.40;;;;;;;;;;5443826;23;20486;-94
2021/06/26 16:19:56;;;;;;;19.90;5.03;;;;;;;;;;5003609;23;20489;-93
2021/06/26 16:22:24;;;;;;;18.00;5.00;;;;;;;;;;4989741;28;20462;-95
2021/06/26 16:25:03;;;;;;;18.20;5.17;;;;;;;;;;4996179;28;20456;-95
2021/06/26 16:27:29;;;;;;;73.70;8.47;;;;;;;;;;4984763;28;20463;-94
2021/06/26 16:29:56;;;;;;;26.47;6.23;;;;;;;;;;5002180;28;20453;-96
2021/06/26 16:32:25;;;;;;;40.30;7.07;;;;;;;;;;4996511;28;20452;-94
2021/06/26 16:34:51;;;;;;;49.10;7.70;;;;;;;;;;5003092;28;20448;-93
2021/06/26 16:37:28;;;;;;;30.97;6.10;;;;;;;;;;4993704;28;20460;-93
2021/06/26 16:39:59;;;;;;;25.97;5.30;;;;;;;;;;4990014;28;20512;-94
2021/06/26 16:42:27;;;;;;;16.53;3.87;;;;;;;;;;4996491;28;20458;-95
2021/06/26 16:44:56;;;;;;;8.50;3.57;;;;;;;;;;4994248;28;20496;-96
2021/06/26 16:47:24;;;;;;;7.40;3.00;;;;;;;;;;4996062;28;20447;-96
2021/06/26 16:49:57;;;;;;;10.00;3.80;;;;;;;;;;5005429;28;20465;-96
2021/06/26 16:52:31;;;;;;;8.30;2.60;;;;;;;;;;4989993;28;20459;-96
2021/06/26 16:55:06;;;;;;;10.53;3.80;;;;;;;;;;4992479;28;20475;-95
2021/06/26 16:57:33;;;;;;;4.90;2.13;;;;;;;;;;4994436;28;20456;-93
2021/06/26 17:00:00;;;;;;;5.90;2.10;;;;;;;;;;4987203;28;20458;-94
2021/06/26 17:02:31;;;;;;;7.80;1.87;;;;;;;;;;4983950;28;20461;-96
2021/06/26 17:05:01;;;;;;;5.67;2.03;;;;;;;;;;4989684;28;20945;-96
2021/06/26 17:07:36;;;;;;;8.73;3.10;;;;;;;;;;5002582;28;20453;-95
2021/06/26 17:10:05;;;;;;;8.17;3.40;;;;;;;;;;5006513;28;20522;-93
2021/06/26 17:12:32;;;;;;;9.60;4.13;;;;;;;;;;4985809;28;20453;-94
2021/06/26 17:14:58;;;;;;;10.57;3.33;;;;;;;;;;5002300;28;20452;-96
2021/06/26 17:17:33;;;;;;;9.40;3.30;;;;;;;;;;4987630;28;20464;-96
2021/06/26 17:22:40;;;;;;;11.17;3.97;;;;;;;;;;4968112;28;20450;-96
2021/06/26 17:25:11;;;;;;;9.57;3.80;;;;;;;;;;4953600;29;20455;-96
2021/06/26 17:27:38;;;;;;;12.43;3.50;;;;;;;;;;4959893;28;20455;-96
2021/06/26 17:30:07;;;;;;;11.30;3.43;;;;;;;;;;4990394;28;20509;-96
2021/06/26 17:32:34;;;;;;;17.80;4.47;;;;;;;;;;4952806;28;20549;-94
2021/06/26 17:35:00;;;;;;;11.87;3.27;;;;;;;;;;4976631;28;20480;-94
2021/06/26 17:37:27;;;;;;;10.90;4.80;;;;;;;;;;4975329;28;21761;-96
2021/06/26 17:39:53;;;;;;;9.70;4.50;;;;;;;;;;4974041;28;20469;-94
2021/06/26 17:42:30;;;;;;;7.77;3.63;;;;;;;;;;4981415;28;20467;-95
2021/06/26 17:45:01;;;;;;;7.97;3.20;;;;;;;;;;4971872;28;20454;-96
2021/06/26 17:47:28;;;;;;;10.03;3.27;;;;;;;;;;4983417;28;20452;-96
2021/06/26 17:49:57;;;;;;;10.73;3.77;;;;;;;;;;4972836;28;20446;-96
2021/06/26 17:58:10;;;;;;;8.40;4.03;;;;;;;;;;5164657;23;20459;-95
2021/06/26 18:00:37;;;;;;;9.50;3.60;;;;;;;;;;4966915;23;20574;-96
2021/06/26 18:03:04;;;;;;;8.73;3.37;;;;;;;;;;4984260;28;20460;-96
2021/06/26 18:05:31;;;;;;;11.40;4.00;;;;;;;;;;4973391;28;20470;-96
2021/06/26 18:07:58;;;;;;;8.00;3.30;;;;;;;;;;4982481;28;20453;-96
2021/06/26 18:10:24;;;;;;;7.77;3.83;;;;;;;;;;4989209;28;20522;-96
2021/06/26 18:12:54;;;;;;;6.67;3.00;;;;;;;;;;4984509;28;20453;-95
2021/06/26 18:18:19;;;;;;;10.97;3.67;;;;;;;;;;4997148;23;20798;-96
2021/06/26 18:20:46;;;;;;;12.20;3.90;;;;;;;;;;4945047;29;20452;-96
2021/06/26 18:23:13;;;;;;;9.77;3.77;;;;;;;;;;4953704;29;20452;-96
2021/06/26 18:25:39;;;;;;;11.07;3.60;;;;;;;;;;4954624;29;20638;-95
2021/06/26 18:28:06;;;;;;;14.10;3.50;;;;;;;;;;4949113;29;20459;-94
2021/06/26 18:30:32;;;;;;;8.20;3.13;;;;;;;;;;4951336;29;20482;-94
2021/06/26 18:32:59;;;;;;;7.70;3.87;;;;;;;;;;4939059;29;20529;-94
2021/06/26 18:35:27;;;;;;;6.17;3.57;;;;;;;;;;4948189;28;20488;-93
2021/06/26 18:37:53;;;;;;;14.50;4.67;;;;;;;;;;4961527;29;20450;-94
2021/06/26 18:40:20;;;;;;;13.67;5.30;;;;;;;;;;4955432;29;20487;-95
2021/06/26 18:42:47;;;;;;;14.80;6.33;;;;;;;;;;4962808;29;20450;-94
2021/06/26 18:45:14;;;;;;;11.57;4.33;;;;;;;;;;4957634;29;21086;-92
2021/06/26 18:47:41;;;;;;;11.57;4.80;;;;;;;;;;4962744;28;20470;-96
2021/06/26 18:50:10;;;;;;;6.90;4.37;;;;;;;;;;4944010;28;20451;-93
2021/06/26 18:52:38;;;;;;;11.47;4.17;;;;;;;;;;4952219;29;20514;-93
2021/06/26 18:55:05;;;;;;;11.13;4.20;;;;;;;;;;4963881;29;20462;-92
2021/06/26 18:57:31;;;;;;;14.40;4.30;;;;;;;;;;4944551;28;20492;-92
2021/06/26 18:59:58;;;;;;;10.67;4.33;;;;;;;;;;4955610;29;20459;-93
2021/06/26 19:02:24;;;;;;;9.37;5.07;;;;;;;;;;4941107;28;20463;-94
2021/06/26 19:04:51;;;;;;;7.77;4.00;;;;;;;;;;4949469;28;20460;-92
2021/06/26 19:07:18;;;;;;;15.03;5.07;;;;;;;;;;4940391;29;20474;-93
2021/06/26 19:09:46;;;;;;;11.43;4.10;;;;;;;;;;4938904;28;20464;-93
2021/06/26 19:12:13;;;;;;;8.67;4.03;;;;;;;;;;4946157;28;20499;-94
2021/06/26 19:14:39;;;;;;;13.23;4.47;;;;;;;;;;4940597;28;21206;-92
2021/06/26 19:17:06;;;;;;;8.30;4.50;;;;;;;;;;4937579;28;20473;-93
2021/06/26 19:19:32;;;;;;;9.87;4.40;;;;;;;;;;4963117;28;21097;-94
2021/06/26 19:21:59;;;;;;;11.93;4.20;;;;;;;;;;4963128;28;20455;-94
2021/06/26 19:24:25;;;;;;;6.90;3.63;;;;;;;;;;4964775;28;20470;-94
2021/06/26 19:26:53;;;;;;;9.13;3.43;;;;;;;;;;4961644;28;20943;-93
2021/06/26 19:29:24;;;;;;;10.10;3.47;;;;;;;;;;4975892;28;20445;-93
2021/06/26 19:31:50;;;;;;;5.80;2.80;;;;;;;;;;4980534;28;20572;-96
2021/06/26 19:34:17;;;;;;;10.70;3.87;;;;;;;;;;4985499;28;20481;-94
2021/06/26 19:36:43;;;;;;;8.30;3.20;;;;;;;;;;4980772;28;20465;-94
2021/06/26 19:39:10;;;;;;;8.17;3.10;;;;;;;;;;4979895;28;20453;-94
2021/06/26 19:41:38;;;;;;;10.67;4.07;;;;;;;;;;4971882;28;20455;-94
2021/06/26 19:44:06;;;;;;;6.50;3.50;;;;;;;;;;4977092;28;20533;-94
2021/06/26 19:46:33;;;;;;;13.20;3.40;;;;;;;;;;4977598;28;20462;-95
2021/06/26 19:48:59;;;;;;;12.07;3.53;;;;;;;;;;4967484;28;20494;-95
2021/06/26 19:51:26;;;;;;;7.90;3.47;;;;;;;;;;4969156;28;20482;-96
2021/06/26 19:53:52;;;;;;;11.97;3.80;;;;;;;;;;4968672;28;20462;-95
2021/06/26 19:56:19;;;;;;;12.33;4.40;;;;;;;;;;4970236;28;20458;-96
2021/06/26 19:58:47;;;;;;;10.93;5.20;;;;;;;;;;4977522;28;20457;-96
2021/06/26 20:01:15;;;;;;;10.30;4.70;;;;;;;;;;4977637;28;20451;-95
2021/06/26 20:03:41;;;;;;;11.37;5.40;;;;;;;;;;4963296;28;20466;-94
2021/06/26 20:06:08;;;;;;;8.53;5.70;;;;;;;;;;4974978;28;20461;-93
2021/06/26 20:08:35;;;;;;;13.53;4.90;;;;;;;;;;4963642;28;20497;-94
2021/06/26 20:11:02;;;;;;;13.87;4.47;;;;;;;;;;4975475;28;20486;-94
2021/06/26 20:13:28;;;;;;;7.60;3.70;;;;;;;;;;4964919;28;20519;-92
2021/06/26 20:15:55;;;;;;;9.10;4.13;;;;;;;;;;4976270;28;20458;-93
2021/06/26 20:18:22;;;;;;;10.43;3.90;;;;;;;;;;4982164;28;20503;-92
2021/06/26 20:20:49;;;;;;;15.90;4.57;;;;;;;;;;4977396;28;20461;-94
2021/06/26 20:23:15;;;;;;;12.20;3.97;;;;;;;;;;4976784;28;20468;-92
2021/06/26 20:25:42;;;;;;;11.20;4.10;;;;;;;;;;4964604;28;20467;-95
2021/06/26 20:28:09;;;;;;;8.47;3.77;;;;;;;;;;4984420;28;20528;-95
2021/06/26 20:30:35;;;;;;;9.70;4.23;;;;;;;;;;4974391;28;20456;-96
2021/06/26 20:33:02;;;;;;;10.63;4.27;;;;;;;;;;4983193;28;20549;-95
2021/06/26 20:35:30;;;;;;;7.43;3.83;;;;;;;;;;4969767;28;20469;-95
2021/06/26 20:37:57;;;;;;;13.00;4.97;;;;;;;;;;4972290;28;20461;-94
2021/06/26 20:40:23;;;;;;;8.23;3.90;;;;;;;;;;4970873;28;20462;-94
2021/06/26 20:42:50;;;;;;;8.77;4.00;;;;;;;;;;4973785;28;20469;-94
2021/06/26 20:45:17;;;;;;;9.70;3.50;;;;;;;;;;4962958;28;20463;-94
2021/06/26 20:47:44;;;;;;;10.53;4.57;;;;;;;;;;4982816;28;20493;-95
2021/06/26 20:50:12;;;;;;;6.37;3.30;;;;;;;;;;4977317;28;20474;-93
2021/06/26 20:52:41;;;;;;;8.53;3.70;;;;;;;;;;4981375;28;20922;-93
2021/06/26 20:55:08;;;;;;;7.37;3.37;;;;;;;;;;4972497;28;20458;-93
2021/06/26 20:57:35;;;;;;;8.00;3.77;;;;;;;;;;4965240;28;20514;-93
2021/06/26 21:00:01;;;;;;;5.40;3.07;;;;;;;;;;5452409;23;20711;-95
2021/06/26 21:02:28;;;;;;;10.10;4.50;;;;;;;;;;4970063;28;20462;-92
2021/06/26 21:04:54;;;;;;;6.77;3.83;;;;;;;;;;4965479;28;20458;-91
2021/06/26 21:07:21;;;;;;;7.33;3.10;;;;;;;;;;4973208;28;20485;-92
2021/06/26 21:09:48;;;;;;;16.27;3.77;;;;;;;;;;4984346;28;20451;-93
2021/06/26 21:12:15;;;;;;;8.47;3.70;;;;;;;;;;4974448;28;20488;-93
2021/06/26 21:14:41;;;;;;;10.77;3.93;;;;;;;;;;4977105;28;20497;-93
2021/06/26 21:17:08;;;;;;;8.33;3.43;;;;;;;;;;4971894;28;20485;-92
2021/06/26 21:19:35;;;;;;;8.67;3.43;;;;;;;;;;4982677;28;20461;-92
2021/06/26 21:22:01;;;;;;;6.67;3.50;;;;;;;;;;4977301;28;20538;-92
2021/06/26 21:24:28;;;;;;;8.50;2.80;;;;;;;;;;4983058;28;20457;-94
2021/06/26 21:26:55;;;;;;;9.90;3.30;;;;;;;;;;4983663;28;20465;-93
2021/06/26 21:29:22;;;;;;;15.43;5.40;;;;;;;;;;5004212;28;20523;-94
2021/06/26 21:31:48;;;;;;;14.23;3.60;;;;;;;;;;4991313;28;20563;-93
2021/06/26 21:34:15;;;;;;;8.33;3.07;;;;;;;;;;4999469;28;20519;-94
2021/06/26 21:36:48;;;;;;;9.23;3.60;;;;;;;;;;4981787;28;20985;-94
2021/06/26 21:39:14;;;;;;;11.67;4.23;;;;;;;;;;5002841;28;20522;-93
2021/06/26 21:41:41;;;;;;;7.87;3.50;;;;;;;;;;4999853;28;20479;-93
2021/06/26 21:44:09;;;;;;;15.90;3.90;;;;;;;;;;5000362;28;21317;-93
2021/06/26 21:46:36;;;;;;;6.20;3.03;;;;;;;;;;4993676;28;20507;-92
2021/06/26 21:49:02;;;;;;;5.90;3.87;;;;;;;;;;4991572;28;20470;-93
2021/06/26 21:51:29;;;;;;;11.13;4.03;;;;;;;;;;4993611;28;20485;-93
2021/06/26 21:53:55;;;;;;;5.60;3.13;;;;;;;;;;4981648;28;20456;-93
2021/06/26 21:56:22;;;;;;;8.20;3.73;;;;;;;;;;5174059;23;20463;-93
2021/06/26 21:58:56;;;;;;;8.40;3.67;;;;;;;;;;5004709;28;20494;-94
2021/06/26 22:01:24;;;;;;;15.50;4.70;;;;;;;;;;5005413;28;20448;-94
2021/06/26 22:03:51;;;;;;;7.23;3.80;;;;;;;;;;5003503;28;20471;-95
2021/06/26 22:06:18;;;;;;;7.50;3.20;;;;;;;;;;5006864;28;20479;-95
2021/06/26 22:08:45;;;;;;;8.80;3.70;;;;;;;;;;5003584;28;20464;-94
2021/06/26 22:11:11;;;;;;;7.53;3.30;;;;;;;;;;4993703;28;20475;-94
2021/06/26 22:13:38;;;;;;;12.77;2.80;;;;;;;;;;5000055;28;20506;-94
2021/06/26 22:16:05;;;;;;;7.00;2.97;;;;;;;;;;5002419;28;20488;-94
2021/06/26 22:18:37;;;;;;;6.87;3.03;;;;;;;;;;5001413;28;20463;-93
2021/06/26 22:21:05;;;;;;;7.23;3.57;;;;;;;;;;5011515;28;20455;-95
2021/06/26 22:23:31;;;;;;;9.90;4.07;;;;;;;;;;4998547;28;20455;-93
2021/06/26 22:25:58;;;;;;;4.17;2.73;;;;;;;;;;4996541;28;20458;-94
2021/06/26 22:28:24;;;;;;;10.63;3.73;;;;;;;;;;5008923;28;20462;-94
2021/06/26 22:30:51;;;;;;;9.13;3.97;;;;;;;;;;5013655;28;20965;-94
2021/06/26 22:33:17;;;;;;;6.60;3.57;;;;;;;;;;5013521;28;20521;-95
2021/06/26 22:35:46;;;;;;;9.23;3.37;;;;;;;;;;5002768;28;20460;-94
2021/06/26 22:38:12;;;;;;;13.27;3.00;;;;;;;;;;5005259;28;20509;-95
2021/06/26 22:40:39;;;;;;;6.07;3.10;;;;;;;;;;5004148;28;20466;-93
2021/06/26 22:43:06;;;;;;;10.17;4.40;;;;;;;;;;5002986;28;20454;-94
2021/06/26 22:45:35;;;;;;;10.20;3.23;;;;;;;;;;5005542;28;20520;-94
2021/06/26 22:48:02;;;;;;;18.73;4.00;;;;;;;;;;5021252;28;20958;-94
2021/06/26 22:50:29;;;;;;;10.53;3.23;;;;;;;;;;5007665;28;20492;-94
2021/06/26 22:52:57;;;;;;;10.97;2.87;;;;;;;;;;5001931;28;20558;-93
2021/06/26 22:55:24;;;;;;;11.67;3.80;;;;;;;;;;5000045;28;20515;-94
2021/06/26 22:57:51;;;;;;;6.83;3.00;;;;;;;;;;5008365;28;20494;-93
2021/06/26 23:00:19;;;;;;;9.37;3.80;;;;;;;;;;4999053;28;21243;-94
2021/06/26 23:02:46;;;;;;;8.53;4.20;;;;;;;;;;5011100;28;21092;-93
2021/06/26 23:05:13;;;;;;;8.07;3.90;;;;;;;;;;5016322;28;20475;-94
2021/06/26 23:07:39;;;;;;;6.30;4.00;;;;;;;;;;5021461;28;20458;-93
2021/06/26 23:10:08;;;;;;;8.97;4.13;;;;;;;;;;5015606;28;20451;-92
2021/06/26 23:12:35;;;;;;;9.23;4.80;;;;;;;;;;5010853;28;20485;-93
2021/06/26 23:15:02;;;;;;;11.27;4.20;;;;;;;;;;5007409;28;20452;-95
2021/06/26 23:17:28;;;;;;;8.63;3.80;;;;;;;;;;4995938;28;20458;-94
2021/06/26 23:19:55;;;;;;;12.60;4.50;;;;;;;;;;5019573;28;20486;-94
2021/06/26 23:22:21;;;;;;;8.70;4.47;;;;;;;;;;5016574;28;20456;-94
2021/06/26 23:24:48;;;;;;;9.17;4.00;;;;;;;;;;5024904;28;20463;-94
2021/06/26 23:27:16;;;;;;;10.20;4.47;;;;;;;;;;5016704;28;20466;-92
2021/06/26 23:29:42;;;;;;;7.37;3.90;;;;;;;;;;5025685;28;20487;-94
2021/06/26 23:32:09;;;;;;;7.53;4.10;;;;;;;;;;5018007;28;20480;-93
2021/06/26 23:34:35;;;;;;;6.10;3.80;;;;;;;;;;5026241;28;20457;-94
2021/06/26 23:37:02;;;;;;;6.37;3.77;;;;;;;;;;4996785;28;20473;-95
2021/06/26 23:39:29;;;;;;;10.77;4.03;;;;;;;;;;5001395;28;20458;-94
2021/06/26 23:41:55;;;;;;;7.57;3.43;;;;;;;;;;5003388;28;20546;-94
2021/06/26 23:44:23;;;;;;;7.97;4.30;;;;;;;;;;4997768;28;20448;-93
2021/06/26 23:46:50;;;;;;;7.90;4.30;;;;;;;;;;5002922;28;20484;-93
2021/06/26 23:49:17;;;;;;;14.17;5.20;;;;;;;;;;5018754;28;21075;-93
2021/06/26 23:51:44;;;;;;;12.40;4.00;;;;;;;;;;4991459;28;20480;-93
2021/06/26 23:54:11;;;;;;;10.00;4.50;;;;;;;;;;5017470;28;20905;-94
2021/06/26 23:56:38;;;;;;;6.27;4.20;;;;;;;;;;5008579;28;20454;-94
2021/06/26 23:59:04;;;;;;;11.00;4.00;;;;;;;;;;5004992;28;20463;-92
